Time;durP1;ratioP1;P1;durP2;ratioP2;P2;SDS_P1;SDS_P2;PMS_P1;PMS_P2;Temp;Humidity;BMP_temperature;BMP_pressure;BME280_temperature;BME280_humidity;BME280_pressure;Samples;Min_cycle;Max_cycle;Signal;HPM_P1;HPM_P2
2023/12/17 00:01:27;;;;;;;;;87.75;69.25;;;;;4.45;100.00;103928.19;5017582;28;45507;-75
2023/12/17 00:03:53;;;;;;;;;97.50;80.50;;;;;4.56;100.00;103946.84;5001812;28;45375;-76
2023/12/17 00:06:19;;;;;;;;;90.25;74.75;;;;;4.57;100.00;103954.78;4998087;28;45884;-75
2023/12/17 00:08:48;;;;;;;;;96.00;75.25;;;;;4.42;100.00;103912.38;5014340;28;45433;-76
2023/12/17 00:11:14;;;;;;;;;84.75;61.00;;;;;4.38;100.00;103915.78;4996993;28;45449;-76
2023/12/17 00:13:40;;;;;;;;;101.00;84.25;;;;;4.53;100.00;103937.19;5018606;28;45302;-76
2023/12/17 00:16:06;;;;;;;;;93.50;77.50;;;;;4.43;100.00;103939.50;4999747;28;46715;-76
2023/12/17 00:18:33;;;;;;;;;99.75;86.00;;;;;4.35;100.00;103925.31;5018070;28;45297;-77
2023/12/17 00:21:00;;;;;;;;;95.00;80.50;;;;;4.47;100.00;103931.78;5018994;28;45487;-76
2023/12/17 00:23:26;;;;;;;;;92.25;77.50;;;;;4.33;100.00;103911.25;4996918;28;45480;-76
2023/12/17 00:25:52;;;;;;;;;97.50;85.50;;;;;4.54;100.00;103949.44;5017975;28;45736;-76
2023/12/17 00:28:18;;;;;;;;;93.25;76.00;;;;;4.28;100.00;103919.00;5006030;28;45424;-75
2023/12/17 00:30:44;;;;;;;;;93.25;76.75;;;;;4.56;100.00;103959.94;5022177;28;45397;-76
2023/12/17 00:33:13;;;;;;;;;113.00;85.50;;;;;4.26;100.00;103906.69;5000676;28;45408;-75
2023/12/17 00:35:39;;;;;;;;;94.50;82.75;;;;;4.55;100.00;103968.66;5009959;28;45513;-76
2023/12/17 00:38:07;;;;;;;;;98.25;86.00;;;;;4.43;100.00;103952.59;5019169;28;45411;-77
2023/12/17 00:40:33;;;;;;;;;73.50;52.50;;;;;4.49;100.00;103969.38;5013055;28;45444;-76
2023/12/17 00:42:59;;;;;;;;;106.75;93.50;;;;;4.42;100.00;103953.41;5004349;28;45299;-75
2023/12/17 00:45:25;;;;;;;;;100.00;85.00;;;;;4.35;100.00;103951.50;5013635;28;46522;-76
2023/12/17 00:47:51;;;;;;;;;110.50;92.50;;;;;4.50;100.00;103965.91;4999825;28;45273;-75
2023/12/17 00:50:17;;;;;;;;;113.50;97.25;;;;;4.38;100.00;103944.63;5018571;28;45286;-75
2023/12/17 00:52:43;;;;;;;;;99.50;79.75;;;;;4.35;100.00;103956.75;5018418;28;45219;-76
2023/12/17 00:55:09;;;;;;;;;103.75;90.25;;;;;4.54;100.00;103994.00;4988311;28;47623;-76
2023/12/17 00:57:34;;;;;;;;;96.75;80.50;;;;;4.53;100.00;103986.97;5013870;28;45410;-76
2023/12/17 01:00:00;;;;;;;;;99.50;88.75;;;;;4.36;100.00;103956.78;5000516;28;45341;-77
2023/12/17 01:02:25;;;;;;;;;101.00;90.25;;;;;4.54;100.00;104000.97;5007399;28;45457;-76
2023/12/17 01:04:52;;;;;;;;;98.75;82.00;;;;;4.47;100.00;103994.66;5003816;28;47846;-76
2023/12/17 01:07:19;;;;;;;;;106.50;90.75;;;;;4.27;100.00;103979.19;5021194;28;45440;-77
2023/12/17 01:09:45;;;;;;;;;95.50;87.25;;;;;4.51;100.00;104014.88;5004532;28;45321;-76
2023/12/17 01:12:11;;;;;;;;;97.75;83.50;;;;;4.53;100.00;104007.03;5016167;28;45401;-76
2023/12/17 01:14:37;;;;;;;;;97.25;79.75;;;;;4.55;100.00;103998.38;5017543;28;45629;-76
2023/12/17 01:17:03;;;;;;;;;95.25;78.00;;;;;4.43;100.00;103984.94;4999641;28;45408;-75
2023/12/17 01:19:30;;;;;;;;;93.50;78.00;;;;;4.35;100.00;103973.31;4999952;28;45497;-76
2023/12/17 01:21:57;;;;;;;;;97.00;82.50;;;;;4.54;100.00;104001.88;5020698;28;45304;-76
2023/12/17 01:24:24;;;;;;;;;88.75;70.50;;;;;4.37;100.00;103970.75;4998100;28;48074;-75
2023/12/17 01:26:50;;;;;;;;;89.00;71.50;;;;;4.49;100.00;103987.72;5015002;28;45274;-76
2023/12/17 01:29:22;;;;;;;;;84.50;64.50;;;;;4.19;100.00;103935.31;5016131;28;45483;-76
2023/12/17 01:31:47;;;;;;;;;80.75;63.00;;;;;4.33;100.00;103958.41;5001730;28;45456;-75
2023/12/17 01:34:14;;;;;;;;;94.00;74.50;;;;;4.22;100.00;103945.03;5000759;28;47428;-76
2023/12/17 01:36:41;;;;;;;;;85.25;64.50;;;;;4.48;100.00;103988.56;4996116;28;45386;-76
2023/12/17 01:39:09;;;;;;;;;84.50;67.25;;;;;4.28;100.00;103955.69;5020355;28;45499;-75
2023/12/17 01:41:38;;;;;;;;;86.75;63.75;;;;;4.45;100.00;103991.09;5017785;28;45505;-75
2023/12/17 01:44:05;;;;;;;;;90.25;70.00;;;;;4.14;100.00;103933.41;5002671;28;45788;-75
2023/12/17 01:46:31;;;;;;;;;89.75;68.50;;;;;4.38;100.00;103981.31;5021202;28;45448;-76
2023/12/17 01:48:59;;;;;;;;;82.50;66.50;;;;;4.34;100.00;103962.81;5020894;28;45289;-75
2023/12/17 01:51:26;;;;;;;;;91.75;73.75;;;;;4.43;100.00;103978.78;5003330;28;45443;-76
2023/12/17 01:53:52;;;;;;;;;83.75;65.75;;;;;4.37;100.00;103976.91;5021173;28;46840;-75
2023/12/17 01:56:20;;;;;;;;;85.00;67.25;;;;;4.27;100.00;103958.25;5016093;28;45307;-76
2023/12/17 01:58:48;;;;;;;;;85.25;63.75;;;;;4.41;100.00;103984.00;5003072;28;45406;-76
2023/12/17 02:01:15;;;;;;;;;84.75;66.00;;;;;4.38;100.00;103970.81;5003244;28;45484;-76
2023/12/17 02:03:44;;;;;;;;;81.75;62.00;;;;;4.29;100.00;103960.03;5020386;28;45389;-75
2023/12/17 02:06:13;;;;;;;;;87.75;74.25;;;;;4.24;100.00;103960.78;5004690;28;45557;-75
2023/12/17 02:08:40;;;;;;;;;85.00;66.00;;;;;4.28;100.00;103960.91;4994660;28;45515;-76
2023/12/17 02:11:11;;;;;;;;;85.75;66.25;;;;;4.26;100.00;103957.34;5020832;28;45429;-75
2023/12/17 02:13:36;;;;;;;;;81.00;61.75;;;;;4.36;100.00;103972.50;5012994;28;47943;-75
2023/12/17 02:16:02;;;;;;;;;82.00;64.00;;;;;4.34;100.00;103976.81;5030363;28;51180;-75
2023/12/17 02:18:27;;;;;;;;;83.25;62.75;;;;;4.13;100.00;103943.00;5003188;28;45383;-75
2023/12/17 02:20:54;;;;;;;;;71.00;55.00;;;;;4.32;100.00;103977.63;5017579;28;45873;-75
2023/12/17 02:23:23;;;;;;;;;83.50;63.50;;;;;4.09;100.00;103937.66;5016274;28;46133;-75
2023/12/17 02:25:49;;;;;;;;;84.00;66.75;;;;;4.28;100.00;103966.16;5011231;28;45457;-77
2023/12/17 02:28:15;;;;;;;;;80.50;61.75;;;;;4.26;100.00;103967.81;5020360;28;45299;-76
2023/12/17 02:30:42;;;;;;;;;81.00;65.00;;;;;4.29;100.00;103960.03;5020534;28;45433;-76
2023/12/17 02:33:08;;;;;;;;;79.00;63.50;;;;;4.16;100.00;103934.34;5002203;28;45390;-76
2023/12/17 02:35:35;;;;;;;;;78.75;61.75;;;;;4.03;100.00;103919.09;5019140;28;45290;-75
2023/12/17 02:38:00;;;;;;;;;82.25;61.75;;;;;4.03;100.00;103917.38;5026438;28;45424;-75
2023/12/17 02:40:26;;;;;;;;;77.25;60.75;;;;;4.19;100.00;103940.56;5020493;28;45390;-75
2023/12/17 02:42:55;;;;;;;;;77.25;61.50;;;;;4.18;100.00;103930.94;4998720;28;46632;-75
2023/12/17 02:45:23;;;;;;;;;76.25;59.00;;;;;4.17;100.00;103923.91;5013983;28;45314;-76
2023/12/17 02:47:51;;;;;;;;;74.50;57.75;;;;;4.06;100.00;103908.72;5016367;28;45642;-76
2023/12/17 02:50:19;;;;;;;;;78.75;61.50;;;;;4.16;100.00;103935.22;5015186;28;45411;-75
2023/12/17 02:52:44;;;;;;;;;80.50;62.75;;;;;3.99;100.00;103912.88;5019598;28;46276;-76
2023/12/17 02:55:10;;;;;;;;;76.75;59.25;;;;;4.10;100.00;103923.69;5024856;28;51086;-76
2023/12/17 02:57:36;;;;;;;;;73.00;55.50;;;;;3.99;100.00;103904.16;5026462;28;45283;-75
2023/12/17 03:00:03;;;;;;;;;82.50;63.00;;;;;4.08;100.00;103920.16;5000159;28;45492;-76
2023/12/17 03:02:31;;;;;;;;;76.50;58.50;;;;;3.84;100.00;103877.50;5000373;28;46218;-76
2023/12/17 03:04:58;;;;;;;;;76.75;58.75;;;;;3.91;100.00;103879.47;5002101;28;45492;-76
2023/12/17 03:07:25;;;;;;;;;73.50;53.50;;;;;4.07;100.00;103905.28;5020781;28;45392;-75
2023/12/17 03:09:54;;;;;;;;;83.25;63.50;;;;;3.97;100.00;103875.31;5021651;28;45356;-75
2023/12/17 03:12:21;;;;;;;;;76.50;59.00;;;;;3.90;100.00;103864.59;5001608;28;47263;-76
2023/12/17 03:14:46;;;;;;;;;79.50;61.25;;;;;3.70;100.00;103839.59;5006771;28;45266;-75
2023/12/17 03:17:15;;;;;;;;;80.75;60.75;;;;;4.01;100.00;103884.16;4995652;28;45384;-76
2023/12/17 03:19:42;;;;;;;;;76.25;59.75;;;;;3.83;100.00;103854.81;5019524;28;45290;-76
2023/12/17 03:22:07;;;;;;;;;79.25;59.00;;;;;3.79;100.00;103848.59;4999960;28;45679;-75
2023/12/17 03:24:32;;;;;;;;;79.00;58.50;;;;;3.96;100.00;103875.28;5028223;28;48911;-75
2023/12/17 03:26:59;;;;;;;;;83.50;63.50;;;;;3.91;100.00;103861.16;5019962;28;45277;-76
2023/12/17 03:29:25;;;;;;;;;77.00;59.00;;;;;3.81;100.00;103852.16;5001564;28;45386;-75
2023/12/17 03:31:52;;;;;;;;;70.75;56.75;;;;;3.93;100.00;103872.53;5018926;28;49643;-75
2023/12/17 03:34:18;;;;;;;;;82.00;61.00;;;;;3.94;100.00;103871.72;5018900;28;45406;-77
2023/12/17 03:36:43;;;;;;;;;84.25;62.25;;;;;3.91;100.00;103875.13;5020112;28;49933;-76
2023/12/17 03:39:10;;;;;;;;;75.25;60.00;;;;;3.45;100.00;103788.25;5019629;28;47751;-75
2023/12/17 03:41:36;;;;;;;;;75.00;58.25;;;;;3.79;100.00;103846.00;5009792;28;47336;-76
2023/12/17 03:44:01;;;;;;;;;76.50;58.00;;;;;3.81;100.00;103852.16;5019136;28;45388;-76
2023/12/17 03:46:28;;;;;;;;;78.75;57.50;;;;;3.86;100.00;103854.91;5001540;28;45449;-75
2023/12/17 03:48:53;;;;;;;;;70.50;56.25;;;;;3.41;100.00;103786.38;5004552;28;45801;-76
2023/12/17 03:51:19;;;;;;;;;72.00;57.25;;;;;3.83;100.00;103850.44;5019182;28;45244;-76
2023/12/17 03:53:45;;;;;;;;;68.25;55.00;;;;;3.86;100.00;103857.53;5003066;28;45672;-76
2023/12/17 03:56:14;;;;;;;;;75.00;59.25;;;;;3.68;100.00;103843.03;5004208;28;45421;-75
2023/12/17 03:58:40;;;;;;;;;67.50;53.00;;;;;3.64;100.00;103822.84;5023482;28;45255;-76
2023/12/17 04:01:11;;;;;;;;;68.00;54.75;;;;;3.72;100.00;103830.06;5025368;28;46413;-77
2023/12/17 04:03:39;;;;;;;;;71.75;56.75;;;;;3.82;100.00;103842.56;5009933;28;45869;-75
2023/12/17 04:06:08;;;;;;;;;74.25;55.75;;;;;3.63;100.00;103818.44;5020359;28;45262;-76
2023/12/17 04:08:35;;;;;;;;;71.50;55.00;;;;;3.66;100.00;103821.16;5004919;28;45564;-76
2023/12/17 04:11:03;;;;;;;;;70.50;54.50;;;;;3.54;100.00;103806.81;5000266;28;47983;-76
2023/12/17 04:13:32;;;;;;;;;64.00;52.50;;;;;3.66;100.00;103828.16;5019449;28;45434;-76
2023/12/17 04:15:59;;;;;;;;;64.25;50.75;;;;;3.73;100.00;103839.69;5007069;28;45474;-75
2023/12/17 04:18:25;;;;;;;;;68.25;55.00;;;;;3.43;100.00;103780.38;5014545;28;45442;-76
2023/12/17 04:20:51;;;;;;;;;69.25;54.50;;;;;3.55;100.00;103795.53;5018775;28;45385;-76
2023/12/17 04:23:16;;;;;;;;;29.75;24.75;;;;;3.64;100.00;103825.47;5018654;28;47451;-75
2023/12/17 04:25:41;;;;;;;;;72.50;56.25;;;;;3.63;100.00;103818.44;5024613;28;45352;-76
2023/12/17 04:28:07;;;;;;;;;71.00;55.50;;;;;3.72;100.00;103827.44;5002674;28;45468;-76
2023/12/17 04:30:33;;;;;;;;;63.50;51.25;;;;;3.57;100.00;103807.81;5003019;28;47508;-76
2023/12/17 04:32:59;;;;;;;;;68.75;54.75;;;;;3.54;100.00;103826.03;5000388;28;45295;-76
2023/12/17 04:35:25;;;;;;;;;70.00;53.75;;;;;3.46;100.00;103796.16;5013698;28;45372;-77
2023/12/17 04:37:53;;;;;;;;;68.50;53.50;;;;;3.67;100.00;103836.03;5024321;28;45583;-76
2023/12/17 04:40:19;;;;;;;;;65.25;54.00;;;;;3.51;100.00;103802.41;5001006;28;47055;-76
2023/12/17 04:42:45;;;;;;;;;70.50;53.75;;;;;3.53;100.00;103813.78;5012569;28;45386;-76
2023/12/17 04:45:11;;;;;;;;;70.50;53.00;;;;;3.59;100.00;103823.56;5016910;28;45333;-75
2023/12/17 04:47:36;;;;;;;;;66.50;53.00;;;;;3.49;100.00;103808.44;5017129;28;45377;-75
2023/12/17 04:50:05;;;;;;;;;62.75;50.75;;;;;3.36;100.00;103782.75;5017163;28;45419;-76
2023/12/17 04:52:30;;;;;;;;;64.75;51.25;;;;;3.41;100.00;103802.97;5019787;28;45279;-76
2023/12/17 04:54:56;;;;;;;;;62.50;50.00;;;;;3.41;100.00;103808.19;5016673;28;45480;-76
2023/12/17 04:57:22;;;;;;;;;67.00;51.25;;;;;3.35;100.00;103784.47;5013069;28;45479;-75
2023/12/17 04:59:50;;;;;;;;;59.00;46.50;;;;;3.54;100.00;103809.44;4999728;28;45507;-76
2023/12/17 05:02:18;;;;;;;;;65.75;50.25;;;;;3.47;100.00;103812.72;5008772;28;45699;-76
2023/12/17 05:04:45;;;;;;;;;56.25;45.50;;;;;3.50;100.00;103803.22;5004398;28;45431;-76
2023/12/17 05:07:11;;;;;;;;;57.75;45.25;;;;;3.48;100.00;103799.69;4993853;28;45500;-75
2023/12/17 05:09:37;;;;;;;;;58.75;43.50;;;;;3.62;100.00;103821.03;5001975;28;46180;-76
2023/12/17 05:12:04;;;;;;;;;55.50;43.50;;;;;3.48;100.00;103794.47;5000455;28;45387;-76
2023/12/17 05:14:31;;;;;;;;;49.25;41.00;;;;;3.59;100.00;103813.09;5024424;28;45491;-76
2023/12/17 05:16:56;;;;;;;;;51.00;42.00;;;;;3.45;100.00;103797.00;5002042;28;45598;-75
2023/12/17 05:19:22;;;;;;;;;42.50;40.25;;;;;3.41;100.00;103779.41;5021333;28;45449;-76
2023/12/17 05:21:47;;;;;;;;;44.25;39.50;;;;;3.48;100.00;103804.03;5016737;28;52269;-76
2023/12/17 05:24:13;;;;;;;;;53.00;42.25;;;;;3.53;100.00;103816.41;5003839;28;45381;-75
2023/12/17 05:26:39;;;;;;;;;47.00;40.75;;;;;3.65;100.00;103832.50;5000659;28;45398;-76
2023/12/17 05:29:05;;;;;;;;;58.00;45.00;;;;;3.64;100.00;103843.78;5003203;28;45528;-75
2023/12/17 05:31:36;;;;;;;;;45.50;38.00;;;;;3.46;100.00;103810.97;5012091;28;45251;-76
2023/12/17 05:34:02;;;;;;;;;42.25;40.00;;;;;3.64;100.00;103843.78;5003656;28;45517;-75
2023/12/17 05:36:28;;;;;;;;;40.50;37.00;;;;;3.59;100.00;103847.13;5004312;28;45410;-76
2023/12/17 05:38:55;;;;;;;;;51.00;39.50;;;;;3.38;100.00;103805.50;5021680;28;45409;-75
2023/12/17 05:41:21;;;;;;;;;42.25;35.75;;;;;3.43;100.00;103810.88;5003578;28;46108;-75
2023/12/17 05:43:49;;;;;;;;;52.50;39.25;;;;;3.54;100.00;103833.88;5012719;28;45417;-76
2023/12/17 05:46:16;;;;;;;;;37.75;34.00;;;;;3.61;100.00;103843.69;4996184;28;45514;-76
2023/12/17 05:48:49;;;;;;;;;43.00;36.00;;;;;3.14;100.00;103758.53;5015719;28;47289;-76
2023/12/17 05:51:16;;;;;;;;;36.75;35.75;;;;;3.41;100.00;103805.56;4999703;28;45512;-75
2023/12/17 05:53:41;;;;;;;;;48.00;43.00;;;;;3.38;100.00;103805.50;5022191;28;45381;-76
2023/12/17 05:56:09;;;;;;;;;52.50;42.25;;;;;3.54;100.00;103840.84;5025749;28;45369;-76
2023/12/17 05:58:39;;;;;;;;;33.75;32.00;;;;;3.36;100.00;103803.66;5015449;28;47312;-76
2023/12/17 06:01:05;;;;;;;;;56.50;44.00;;;;;3.46;100.00;103837.13;5002579;28;45421;-76
2023/12/17 06:03:35;;;;;;;;;53.25;39.75;;;;;3.53;100.00;103858.25;5023313;28;45436;-76
2023/12/17 06:06:02;;;;;;;;;49.00;41.50;;;;;3.53;100.00;103852.19;5000617;28;45424;-76
2023/12/17 06:08:34;;;;;;;;;53.25;42.50;;;;;3.41;100.00;103829.13;4997322;28;46336;-76
2023/12/17 06:11:02;;;;;;;;;44.25;42.00;;;;;3.39;100.00;103830.81;5004019;28;45758;-76
2023/12/17 06:13:28;;;;;;;;;50.00;41.50;;;;;3.32;100.00;103822.72;5002894;28;45455;-76
2023/12/17 06:16:01;;;;;;;;;49.25;42.25;;;;;3.45;100.00;103841.47;5016804;28;45518;-76
2023/12/17 06:18:27;;;;;;;;;57.75;41.50;;;;;3.20;100.00;103804.03;5009604;28;47289;-75
2023/12/17 06:20:52;;;;;;;;;45.25;41.75;;;;;3.35;100.00;103823.72;5015295;28;52843;-75
2023/12/17 06:23:22;;;;;;;;;49.00;40.00;;;;;3.40;100.00;103835.22;5020657;28;45357;-76
2023/12/17 06:25:50;;;;;;;;;55.25;43.00;;;;;3.43;100.00;103847.50;4991903;28;45627;-76
2023/12/17 06:28:16;;;;;;;;;54.00;40.25;;;;;3.23;100.00;103820.72;4997386;28;45653;-76
2023/12/17 06:30:45;;;;;;;;;48.25;40.75;;;;;3.14;100.00;103791.69;5020495;28;45487;-76
2023/12/17 06:33:14;;;;;;;;;45.50;41.00;;;;;3.35;100.00;103846.34;5002214;28;45452;-76
2023/12/17 06:35:40;;;;;;;;;56.75;44.25;;;;;3.13;100.00;103829.13;5018917;28;45740;-77
2023/12/17 06:38:06;;;;;;;;;48.00;40.00;;;;;3.20;100.00;103811.88;5013263;28;45332;-76
2023/12/17 06:40:34;;;;;;;;;40.25;38.00;;;;;3.32;100.00;103838.41;5030953;28;45290;-77
2023/12/17 06:43:00;;;;;;;;;45.50;39.25;;;;;3.35;100.00;103843.75;5020731;28;45309;-77
2023/12/17 06:45:26;;;;;;;;;54.50;41.00;;;;;3.32;100.00;103841.03;5020213;28;48132;-77
2023/12/17 06:47:52;;;;;;;;;50.25;40.00;;;;;3.31;100.00;103847.09;5019695;28;45981;-76
2023/12/17 06:50:22;;;;;;;;;47.50;40.75;;;;;3.29;100.00;103849.69;5020287;28;46007;-75
2023/12/17 06:52:48;;;;;;;;;42.75;40.00;;;;;3.28;100.00;103853.13;5009421;28;45380;-76
2023/12/17 06:55:13;;;;;;;;;48.00;41.50;;;;;3.04;100.00;103819.22;5006145;28;48374;-75
2023/12/17 06:57:47;;;;;;;;;42.25;36.75;;;;;3.23;100.00;103854.72;5023312;28;46356;-75
2023/12/17 07:00:18;;;;;;;;;48.25;38.25;;;;;3.21;100.00;103845.06;5003334;28;45383;-75
2023/12/17 07:02:44;;;;;;;;;43.75;36.75;;;;;3.23;100.00;103851.22;5002586;28;45564;-76
2023/12/17 07:05:14;;;;;;;;;46.75;41.00;;;;;3.21;100.00;103852.91;5020167;28;45484;-75
2023/12/17 07:07:47;;;;;;;;;46.00;38.00;;;;;3.17;100.00;103846.69;5020075;28;45577;-75
2023/12/17 07:10:14;;;;;;;;;32.00;30.50;;;;;3.19;100.00;103862.41;5002360;28;45358;-76
2023/12/17 07:12:40;;;;;;;;;53.25;42.00;;;;;3.09;100.00;103835.06;5010227;28;45595;-76
2023/12/17 07:15:05;;;;;;;;;43.75;36.25;;;;;2.94;100.00;103813.69;5018979;28;45488;-76
2023/12/17 07:17:31;;;;;;;;;34.50;30.75;;;;;2.99;100.00;103820.81;5017192;28;46322;-75
2023/12/17 07:20:02;;;;;;;;;42.00;38.75;;;;;3.12;100.00;103840.41;5026867;28;45412;-76
2023/12/17 07:22:33;;;;;;;;;45.75;39.75;;;;;2.91;100.00;103817.06;5020115;28;45309;-75
2023/12/17 07:25:03;;;;;;;;;37.00;33.50;;;;;3.13;100.00;103855.25;5001414;28;45651;-75
2023/12/17 07:27:36;;;;;;;;;42.00;35.00;;;;;3.02;100.00;103818.31;4997371;28;49499;-76
2023/12/17 07:30:01;;;;;;;;;36.50;33.00;;;;;3.11;100.00;103846.47;5032064;28;45321;-75
2023/12/17 07:32:26;;;;;;;;;38.50;37.00;;;;;2.98;100.00;103824.25;5020018;28;45842;-75
2023/12/17 07:34:52;;;;;;;;;47.00;36.25;;;;;2.98;100.00;103812.91;5020285;28;50863;-75
2023/12/17 07:37:17;;;;;;;;;35.00;33.25;;;;;3.06;100.00;103825.41;5025813;28;45305;-76
2023/12/17 07:39:45;;;;;;;;;43.75;30.75;;;;;2.96;100.00;103809.38;5030833;28;45288;-76
2023/12/17 07:42:17;;;;;;;;;26.25;26.25;;;;;3.08;100.00;103833.28;5020308;28;45377;-76
2023/12/17 07:44:44;;;;;;;;;37.25;31.25;;;;;3.08;100.00;103834.19;5019863;28;45459;-75
2023/12/17 07:47:12;;;;;;;;;41.00;32.25;;;;;2.82;100.00;103801.09;5019955;28;45307;-76
2023/12/17 07:49:38;;;;;;;;;36.00;31.25;;;;;3.03;100.00;103817.47;5013850;28;45486;-76
2023/12/17 07:52:03;;;;;;;;;43.50;37.25;;;;;2.92;100.00;103800.53;5021587;28;45341;-75
2023/12/17 07:54:29;;;;;;;;;36.75;31.25;;;;;2.90;100.00;103788.28;5018135;28;45483;-75
2023/12/17 07:57:02;;;;;;;;;38.00;33.00;;;;;3.03;100.00;103814.88;4999977;28;46487;-75
2023/12/17 07:59:36;;;;;;;;;29.00;29.00;;;;;3.16;100.00;103834.44;5025060;28;45467;-76
2023/12/17 08:02:02;;;;;;;;;40.25;35.75;;;;;3.01;100.00;103806.06;4999766;28;45485;-76
2023/12/17 08:04:27;;;;;;;;;30.25;27.75;;;;;3.09;100.00;103809.81;5018987;28;45426;-75
2023/12/17 08:06:53;;;;;;;;;37.25;34.25;;;;;3.02;100.00;103801.72;5015566;28;46866;-76
2023/12/17 08:09:36;;;;;;;;;37.50;33.00;;;;;3.17;100.00;103822.25;5019662;28;45420;-76
2023/12/17 08:12:04;;;;;;;;;38.75;34.00;;;;;3.16;100.00;103818.75;5019464;28;45393;-75
2023/12/17 08:14:32;;;;;;;;;33.00;30.50;;;;;2.97;100.00;103791.16;5016228;28;45361;-75
2023/12/17 08:17:08;;;;;;;;;47.75;32.25;;;;;2.94;100.00;103784.94;5014890;28;45543;-76
2023/12/17 08:19:35;;;;;;;;;38.75;35.00;;;;;3.04;100.00;103793.09;5014064;28;45509;-76
2023/12/17 08:22:04;;;;;;;;;37.75;33.75;;;;;3.26;100.00;103819.91;5017147;28;45441;-75
2023/12/17 08:24:35;;;;;;;;;25.50;23.00;;;;;3.29;100.00;103822.63;5018225;28;45407;-75
2023/12/17 08:27:03;;;;;;;;;39.75;32.75;;;;;3.30;100.00;103827.03;5018819;28;45574;-76
2023/12/17 08:29:35;;;;;;;;;36.00;33.25;;;;;3.32;100.00;103844.53;5006411;28;45576;-75
2023/12/17 08:32:08;;;;;;;;;36.25;32.25;;;;;3.31;100.00;103834.00;4998915;28;45622;-76
2023/12/17 08:34:33;;;;;;;;;37.75;28.00;;;;;3.30;100.00;103820.06;4997267;28;45341;-76
2023/12/17 08:37:04;;;;;;;;;34.75;31.75;;;;;3.37;100.00;103844.69;5018597;28;46082;-76
2023/12/17 08:39:29;;;;;;;;;42.75;35.50;;;;;3.38;100.00;103834.25;5027025;28;45482;-76
2023/12/17 08:41:54;;;;;;;;;31.00;27.75;;;;;3.19;100.00;103786.56;5005380;28;45456;-76
2023/12/17 08:44:23;;;;;;;;;36.75;35.50;;;;;3.39;100.00;103824.69;5001345;28;45370;-76
2023/12/17 08:46:52;;;;;;;;;29.50;25.00;;;;;3.21;100.00;103782.28;5002203;28;46214;-75
2023/12/17 08:49:21;;;;;;;;;40.25;36.75;;;;;3.38;100.00;103807.22;4997103;28;45445;-76
2023/12/17 08:51:48;;;;;;;;;27.00;24.25;;;;;3.30;100.00;103786.06;5000782;28;45513;-76
2023/12/17 08:54:14;;;;;;;;;36.00;31.75;;;;;3.37;100.00;103806.31;5000785;28;45267;-75
2023/12/17 08:56:40;;;;;;;;;36.50;33.25;;;;;3.56;100.00;103828.72;5017114;28;45641;-76
2023/12/17 08:59:06;;;;;;;;;37.50;32.75;;;;;3.46;100.00;103790.94;5016425;28;45522;-76
2023/12/17 09:01:33;;;;;;;;;33.75;26.00;;;;;3.55;100.00;103800.75;4998263;28;45382;-76
2023/12/17 09:03:59;;;;;;;;;35.00;28.50;;;;;3.66;100.00;103818.53;5000657;28;45647;-76
2023/12/17 09:06:24;;;;;;;;;32.50;28.25;;;;;3.65;100.00;103814.16;5017649;28;57818;-77
2023/12/17 09:08:49;;;;;;;;;34.00;29.50;;;;;3.65;100.00;103794.97;5018012;28;45459;-78
2023/12/17 09:11:15;;;;;;;;;37.25;30.00;;;;;3.84;100.00;103812.97;5009813;28;45343;-77
2023/12/17 09:13:41;;;;;;;;;34.50;30.75;;;;;3.82;100.00;103800.69;5006771;28;45239;-77
2023/12/17 09:16:07;;;;;;;;;36.50;30.00;;;;;3.94;100.00;103812.38;5000635;28;46761;-78
2023/12/17 09:18:32;;;;;;;;;32.75;28.50;;;;;3.95;100.00;103805.41;4989462;28;45314;-78
2023/12/17 09:21:00;;;;;;;;;31.75;29.25;;;;;3.87;100.00;103791.22;5017587;28;45339;-77
2023/12/17 09:23:26;;;;;;;;;35.50;26.25;;;;;3.99;100.00;103802.91;4998243;28;45386;-78
2023/12/17 09:25:51;;;;;;;;;27.75;27.75;;;;;4.04;100.00;103810.91;5018299;28;46151;-78
2023/12/17 09:28:17;;;;;;;;;28.25;28.25;;;;;4.04;100.00;103796.09;4998635;28;45449;-78
2023/12/17 09:30:43;;;;;;;;;33.75;29.00;;;;;4.09;100.00;103798.84;4998520;28;45376;-78
2023/12/17 09:33:08;;;;;;;;;28.50;26.25;;;;;4.19;100.00;103822.69;5016932;28;45584;-78
2023/12/17 09:35:36;;;;;;;;;38.50;30.50;;;;;4.22;100.00;103808.81;5007784;28;47373;-78
2023/12/17 09:38:02;;;;;;;;;30.75;27.75;;;;;4.25;100.00;103806.28;5019899;28;45425;-78
2023/12/17 09:40:32;;;;;;;;;42.50;30.25;;;;;4.36;100.00;103812.66;5016911;28;45457;-78
2023/12/17 09:43:00;;;;;;;;;31.50;27.25;;;;;4.21;100.00;103775.59;5018041;28;45477;-78
2023/12/17 09:45:40;;;;;;;;;33.50;31.50;;;;;4.26;100.00;103783.56;4999561;28;47761;-78
2023/12/17 09:48:10;;;;;;;;;36.25;32.50;;;;;4.20;100.00;103760.72;4991792;28;45484;-78
2023/12/17 09:50:37;;;;;;;;;38.75;31.25;;;;;4.42;100.00;103791.84;4997339;28;45488;-77
2023/12/17 09:53:06;;;;;;;;;36.50;31.50;;;;;4.65;100.00;103835.28;4998147;28;45597;-78
2023/12/17 09:55:40;;;;;;;;;32.00;29.75;;;;;4.63;100.00;103807.25;4998225;28;45961;-79
2023/12/17 09:58:07;;;;;;;;;37.00;26.50;;;;;4.77;100.00;103825.97;4992861;28;45484;-76
2023/12/17 10:00:35;;;;;;;;;33.25;27.50;;;;;4.60;100.00;103786.22;5000696;28;45504;-80
2023/12/17 10:03:24;;;;;;;;;33.25;28.00;;;;;4.36;100.00;103754.13;5001039;28;45407;-82
2023/12/17 10:05:53;;;;;;;;;33.25;26.25;;;;;4.42;100.00;103757.78;5001969;28;47669;-82
2023/12/17 10:08:59;;;;;;;;;;;;;;;;;;;;;
2023/12/17 10:11:27;;;;;;;;;45.50;33.00;;;;;4.55;100.00;103724.91;4995481;28;67775;-78
2023/12/17 10:14:02;;;;;;;;;36.75;26.75;;;;;4.82;100.00;103756.16;4999201;28;45578;-78
2023/12/17 10:16:28;;;;;;;;;29.50;25.25;;;;;4.56;100.00;103738.06;5016554;28;47507;-80
2023/12/17 10:19:07;;;;;;;;;;;;;;;;;;;;;
2023/12/17 10:22:02;;;;;;;;;29.50;24.00;;;;;5.15;100.00;103806.78;5016512;28;67716;-80
2023/12/17 10:28:00;;;;;;;;;27.50;26.00;;;;;5.05;100.00;103757.56;5021746;28;45666;-82
2023/12/17 10:33:58;;;;;;;;;30.75;25.50;;;;;5.23;100.00;103744.88;5023191;28;45315;-80
2023/12/17 10:36:23;;;;;;;;;24.00;18.50;;;;;5.59;100.00;103774.53;5021400;28;45429;-80
2023/12/17 10:38:50;;;;;;;;;25.25;24.00;;;;;5.30;100.00;103712.66;4996274;28;47026;-80
2023/12/17 10:41:17;;;;;;;;;34.50;26.50;;;;;5.68;100.00;103777.34;4998444;28;45315;-81
2023/12/17 10:43:47;;;;;;;;;32.50;27.50;;;;;5.36;100.00;103701.41;5013677;28;45963;-81
2023/12/17 10:46:14;;;;;;;;;38.75;30.25;;;;;5.58;100.00;103743.00;5019942;28;45540;-80
2023/12/17 10:48:41;;;;;;;;;37.50;25.50;;;;;5.91;100.00;103785.72;5019593;28;45375;-80
2023/12/17 10:54:01;;;;;;;;;31.25;24.00;;;;;5.72;100.00;103716.19;5018649;28;45444;-84
2023/12/17 10:56:48;;;;;;;;;46.75;40.25;;;;;5.60;100.00;103660.78;5009653;28;45378;-79
2023/12/17 10:59:19;;;;;;;;;24.00;21.50;;;;;5.73;100.00;103696.91;5005061;28;45544;-79
2023/12/17 11:01:47;;;;;;;;;27.00;23.75;;;;;5.83;100.00;103691.84;5011085;28;45376;-80
2023/12/17 11:04:13;;;;;;;;;32.00;30.50;;;;;6.16;100.00;103752.91;5002612;28;45413;-80
2023/12/17 11:06:39;;;;;;;;;36.75;30.25;;;;;5.86;100.00;103666.53;5016448;28;45553;-80
2023/12/17 11:09:04;;;;;;;;;26.00;24.50;;;;;6.10;100.00;103709.03;5020859;28;46299;-79
2023/12/17 11:11:37;;;;;;;;;35.50;33.25;;;;;5.82;100.00;103667.34;4996266;28;45422;-80
2023/12/17 11:14:03;;;;;;;;;40.75;35.00;;;;;5.69;100.00;103610.22;4993585;28;45382;-80
2023/12/17 11:16:29;;;;;;;;;29.50;26.25;;;;;5.95;100.00;103668.47;4994286;28;45516;-79
2023/12/17 11:18:59;;;;;;;;;25.00;23.25;;;;;6.44;100.00;103742.03;5014192;28;45573;-80
2023/12/17 11:21:34;;;;;;;;;25.50;24.50;;;;;6.37;100.00;103716.50;5008209;28;45378;-85
2023/12/17 11:24:04;;;;;;;;;34.25;30.25;;;;;6.34;100.00;103697.16;5005037;28;45301;-80